Kezdőlap
METAR-TAF:

METAR-TAF

Repülőterek :

Iguaçu, Argentína

földrajzi szélesség: 25-44S, földrajzi hosszúság: 054-28W, magasság: 270 m

Jelenlegi meteorológiai megfigyelések

A jelentés 30 perccel ezelõtt készült, 08:00 UTC
Különbözõ irányokból fújó szél 2 kt
Hőmérséklet 9°C
Páratartalom 93%
Légköri nyomás 1023 hPa
Látótávolság 10 km, vagy több
Szórványos felhőzet 2900 lábon
Borult 3900 lábon

METAR: SARI 280800Z VRB02KT 9999 SCT029 OVC039 09/08 Q1023

Idő: 05:30 (08:30 UTC)

Előrejelzés

A jelentés 3 órával és 30 perccel ezelõtt készült, 05:00 UTC
Az előrejelzés 28-én 06 óra UTC és 29-én 06 óra UTC között érvényes
Különbözõ irányokból fújó szél 2 kt
Látótávolság 10 km, vagy több
Borult 3500 lábon
28-én 13 óra UTC és 28-én 15 óra UTC között fokozatosan kialakuló
Látótávolság 10 km, vagy több
Szórványos felhőzet 2500 lábon

TAF: SARI 280500Z 2806/2906 VRB02KT 9999 OVC035 TX18/2819Z TN08/2810Z BECMG 2813/2815 9999 SCT025

Meteorológiai megfigyelések és előrejelzések több, mint 4000 repülőtéren (METAR és TAF jelentéseket).

A térképen piros és sárga pontok jelzik az elérhető meteorológiai állomásokat.

Mozgassa az egeret a pont fölött, hogy megjelenjen az állomás neve.

Azután kattintson az időjárási megfigyelések és előrejelzések megtekintéséhez.

A térkép megváltoztatása: kattintson a fekete keresztel jelölt zöld gombra ráközelítéshez, a vonallal jelölt zöld gombra távolításhoz, vagy a zöld nyilakra a szomszédos térképek eléréséhez.


METAR-TAF: